Time;durP1;ratioP1;P1;durP2;ratioP2;P2;SDS_P1;SDS_P2;PMS_P1;PMS_P2;Temp;Humidity;BMP_temperature;BMP_pressure;BME280_temperature;BME280_humidity;BME280_pressure;Samples;Min_cycle;Max_cycle;Signal;HPM_P1;HPM_P2
2022/09/16 00:01:48;;;;;;;5.43;0.85;;;12.90;99.90;;;;;;5062947;28;20036;-86
2022/09/16 00:10:29;;;;;;;4.32;1.10;;;12.90;99.90;;;;;;5089951;28;20413;-86
2022/09/16 00:12:56;;;;;;;4.20;0.80;;;12.90;99.90;;;;;;5075683;28;20048;-86
2022/09/16 00:15:27;;;;;;;5.68;0.95;;;13.00;99.90;;;;;;5054821;28;20491;-86
2022/09/16 00:18:14;;;;;;;3.50;1.00;;;13.00;99.90;;;;;;5079951;28;20054;-86
2022/09/16 00:27:41;;;;;;;4.00;0.80;;;12.90;99.90;;;;;;5097266;28;20506;-86
2022/09/16 00:30:32;;;;;;;3.03;1.00;;;12.90;99.90;;;;;;5077087;28;20041;-87
2022/09/16 00:33:09;;;;;;;3.00;0.75;;;12.90;99.90;;;;;;5046987;28;20166;-86
2022/09/16 00:38:26;;;;;;;5.05;1.10;;;12.80;99.90;;;;;;5069143;28;20458;-87
2022/09/16 00:40:55;;;;;;;5.38;0.88;;;12.80;99.90;;;;;;5047181;28;20041;-86
2022/09/16 00:43:52;;;;;;;2.00;0.60;;;12.80;99.90;;;;;;5041920;28;20102;-86
2022/09/16 00:47:19;;;;;;;6.65;1.55;;;12.80;99.90;;;;;;5051040;28;20045;-86
2022/09/16 00:49:48;;;;;;;5.28;1.00;;;12.70;99.90;;;;;;5054256;28;20094;-87
2022/09/16 00:52:51;;;;;;;6.40;0.90;;;12.70;99.90;;;;;;5056661;28;20041;-86
2022/09/16 00:59:09;;;;;;;4.03;0.80;;;12.60;99.90;;;;;;5051880;28;20040;-86
2022/09/16 01:01:44;;;;;;;4.83;1.00;;;12.70;99.90;;;;;;5060662;28;20123;-86
2022/09/16 01:13:11;;;;;;;5.53;0.80;;;12.60;99.90;;;;;;5036362;28;20033;-86
2022/09/16 01:16:16;;;;;;;4.97;0.82;;;12.60;99.90;;;;;;5058117;28;20047;-86
2022/09/16 01:19:08;;;;;;;5.38;1.63;;;12.60;99.90;;;;;;5056128;28;20043;-86
2022/09/16 01:22:25;;;;;;;5.47;1.10;;;12.30;99.90;;;;;;5023450;28;20040;-86
2022/09/16 01:28:12;;;;;;;7.63;1.15;;;12.50;99.90;;;;;;5016441;28;20065;-86
2022/09/16 01:31:20;;;;;;;6.03;1.25;;;12.50;99.90;;;;;;5022882;28;20042;-85
2022/09/16 01:34:23;;;;;;;6.30;1.48;;;12.50;99.90;;;;;;5050360;28;20105;-84
2022/09/16 01:51:03;;;;;;;3.88;0.93;;;12.40;99.90;;;;;;5031643;28;20050;-86
2022/09/16 01:54:05;;;;;;;4.60;1.05;;;12.40;99.90;;;;;;5016168;28;20042;-86
2022/09/16 01:57:24;;;;;;;3.35;0.90;;;12.40;99.90;;;;;;5044033;28;20091;-86
2022/09/16 02:00:01;;;;;;;2.15;0.90;;;12.40;99.90;;;;;;5050584;28;20054;-86
2022/09/16 02:06:51;;;;;;;4.90;1.02;;;12.40;99.90;;;;;;5045741;28;20465;-86
2022/09/16 02:09:55;;;;;;;7.15;1.17;;;12.40;99.90;;;;;;5059864;28;20388;-86
2022/09/16 02:12:30;;;;;;;6.88;1.08;;;12.40;99.90;;;;;;5055495;28;20385;-86
2022/09/16 02:15:03;;;;;;;7.75;1.15;;;12.40;99.90;;;;;;5060284;28;20036;-87
2022/09/16 02:30:50;;;;;;;7.18;0.77;;;12.30;99.90;;;;;;5014492;28;20050;-85
2022/09/16 02:33:22;;;;;;;3.90;0.80;;;12.30;99.90;;;;;;4999002;28;20041;-84
2022/09/16 02:36:15;;;;;;;5.28;1.00;;;12.30;99.90;;;;;;4997553;28;20415;-85
2022/09/16 02:39:13;;;;;;;1.75;0.70;;;12.30;99.90;;;;;;5062499;28;20118;-85
2022/09/16 02:45:22;;;;;;;1.95;0.80;;;12.20;99.90;;;;;;5031133;28;20395;-84
2022/09/16 02:48:28;;;;;;;4.78;0.85;;;12.20;99.90;;;;;;5056870;28;20087;-85
2022/09/16 02:51:20;;;;;;;4.32;0.90;;;12.20;99.90;;;;;;5059189;28;20043;-85
2022/09/16 02:54:09;;;;;;;2.75;0.63;;;12.20;99.90;;;;;;5078687;28;20047;-85
2022/09/16 02:57:12;;;;;;;;;;;;;;;;;;;;;
2022/09/16 02:59:47;;;;;;;4.75;1.30;;;12.10;99.90;;;;;;5070453;28;20046;-86
2022/09/16 03:05:29;;;;;;;5.00;1.23;;;12.10;99.90;;;;;;5076795;28;20040;-86
2022/09/16 03:11:46;;;;;;;2.67;1.13;;;12.00;99.90;;;;;;5075804;28;20079;-86
2022/09/16 03:14:32;;;;;;;3.38;1.17;;;12.00;99.90;;;;;;5076203;28;20564;-86
2022/09/16 03:17:43;;;;;;;4.18;1.02;;;11.90;99.90;;;;;;5061800;28;20056;-86
2022/09/16 03:20:24;;;;;;;3.67;1.17;;;11.90;99.90;;;;;;5079651;28;20100;-86
2022/09/16 03:26:38;;;;;;;6.45;1.38;;;11.90;99.90;;;;;;4999622;28;20080;-86
2022/09/16 03:30:11;;;;;;;4.00;1.00;;;11.90;99.90;;;;;;5074330;28;20106;-85
2022/09/16 03:33:15;;;;;;;7.80;1.42;;;11.90;99.90;;;;;;5050426;28;20100;-87
2022/09/16 03:42:23;;;;;;;7.20;1.40;;;11.80;99.90;;;;;;5070527;28;20036;-86
2022/09/16 03:45:08;;;;;;;2.42;1.00;;;11.80;99.90;;;;;;5060254;28;20124;-85
2022/09/16 03:48:19;;;;;;;2.70;0.85;;;11.80;99.90;;;;;;5069761;28;20089;-86
2022/09/16 03:50:59;;;;;;;5.15;1.15;;;11.80;99.90;;;;;;5071848;28;20044;-86
2022/09/16 03:54:18;;;;;;;5.60;0.80;;;11.70;99.90;;;;;;5055330;28;20043;-85
2022/09/16 03:56:52;;;;;;;3.53;1.55;;;11.70;99.90;;;;;;5058826;28;20040;-86
2022/09/16 04:02:50;;;;;;;4.20;0.80;;;11.80;99.90;;;;;;5003851;28;20105;-86
2022/09/16 04:06:14;;;;;;;4.55;1.00;;;11.80;99.90;;;;;;5048824;28;20399;-86
2022/09/16 04:09:36;;;;;;;4.20;0.90;;;11.80;99.90;;;;;;5000860;28;20050;-86
2022/09/16 04:12:09;;;;;;;3.88;0.90;;;11.80;99.90;;;;;;5032659;28;20055;-86
2022/09/16 04:14:40;;;;;;;4.45;1.20;;;11.80;99.90;;;;;;5077485;28;20036;-86
2022/09/16 04:20:25;;;;;;;6.05;1.20;;;11.80;99.90;;;;;;5068165;28;20047;-86
2022/09/16 04:23:02;;;;;;;6.78;1.40;;;11.80;99.90;;;;;;5076204;28;20039;-86
2022/09/16 04:26:22;;;;;;;3.15;0.95;;;11.80;99.90;;;;;;5086077;28;20097;-86
2022/09/16 04:28:57;;;;;;;6.20;1.27;;;11.90;99.90;;;;;;5056533;28;20055;-85
2022/09/16 04:31:48;;;;;;;7.03;1.20;;;11.80;99.90;;;;;;5046154;28;20461;-86
2022/09/16 04:34:39;;;;;;;5.60;1.60;;;11.80;99.90;;;;;;5035597;28;20064;-87
2022/09/16 04:37:34;;;;;;;5.90;1.40;;;11.80;99.90;;;;;;5053024;28;20103;-86
2022/09/16 04:46:48;;;;;;;6.15;1.15;;;11.70;99.90;;;;;;5088390;28;20043;-86
2022/09/16 04:55:21;;;;;;;4.30;1.35;;;11.70;99.90;;;;;;5063723;28;20040;-86
2022/09/16 04:57:49;;;;;;;5.78;1.05;;;11.70;99.90;;;;;;5077719;28;20111;-86
2022/09/16 05:01:00;;;;;;;9.00;1.45;;;11.60;99.90;;;;;;5077669;28;20036;-86
2022/09/16 05:09:21;;;;;;;9.17;1.60;;;11.70;99.90;;;;;;5075581;28;20044;-86
2022/09/16 05:15:02;;;;;;;8.60;1.80;;;11.70;99.90;;;;;;5075366;28;20044;-86
2022/09/16 05:21:11;;;;;;;8.32;1.20;;;11.80;99.90;;;;;;5059817;28;20032;-86
2022/09/16 05:23:52;;;;;;;9.38;1.40;;;11.80;99.90;;;;;;5080813;28;20162;-86
2022/09/16 05:26:38;;;;;;;9.57;1.40;;;11.80;99.90;;;;;;5094905;28;20031;-85
2022/09/16 05:29:39;;;;;;;5.95;1.40;;;11.80;99.90;;;;;;5059566;28;20079;-84
2022/09/16 05:35:55;;;;;;;7.38;1.33;;;11.80;99.90;;;;;;5034099;28;20047;-86
2022/09/16 05:38:29;;;;;;;4.53;1.10;;;11.70;99.90;;;;;;5047309;28;20110;-86
2022/09/16 05:44:38;;;;;;;6.65;1.17;;;11.70;99.90;;;;;;5039705;28;20057;-86
2022/09/16 05:47:26;;;;;;;4.88;1.65;;;11.70;99.90;;;;;;5052101;28;20917;-85
2022/09/16 05:50:03;;;;;;;10.30;1.52;;;11.60;99.90;;;;;;5029028;28;20043;-85
2022/09/16 05:55:31;;;;;;;5.95;1.17;;;11.60;99.90;;;;;;5067374;28;20057;-86
2022/09/16 05:58:06;;;;;;;9.38;1.40;;;11.60;99.90;;;;;;5051697;28;20515;-87
2022/09/16 06:01:30;;;;;;;8.60;1.40;;;11.60;99.90;;;;;;5025231;28;20378;-86
2022/09/16 06:04:25;;;;;;;10.25;1.40;;;11.60;99.90;;;;;;5042264;28;20088;-86
2022/09/16 06:06:53;;;;;;;4.97;1.08;;;11.60;99.90;;;;;;5055075;28;20043;-84
2022/09/16 06:09:26;;;;;;;6.88;1.55;;;11.60;99.90;;;;;;5025795;28;20059;-84
2022/09/16 06:12:11;;;;;;;9.70;1.83;;;11.60;99.90;;;;;;5045855;28;20040;-84
2022/09/16 06:17:54;;;;;;;13.00;2.10;;;11.60;99.90;;;;;;5030916;28;20037;-87
2022/09/16 06:20:46;;;;;;;11.00;1.67;;;11.70;99.90;;;;;;5041833;28;20074;-88
2022/09/16 06:23:17;;;;;;;10.43;1.42;;;11.90;99.90;;;;;;5043376;28;20623;-89
2022/09/16 06:26:04;;;;;;;5.43;1.75;;;11.70;99.90;;;;;;5025629;28;20478;-86
2022/09/16 06:28:55;;;;;;;;;;;;;;;;;;;;;
2022/09/16 06:31:40;;;;;;;11.05;1.55;;;11.70;99.90;;;;;;5073929;28;20044;-85
2022/09/16 06:34:53;;;;;;;7.28;1.50;;;11.80;99.90;;;;;;5075583;28;20032;-85
2022/09/16 06:37:33;;;;;;;5.15;1.33;;;11.80;99.90;;;;;;5057624;28;20128;-86
2022/09/16 06:43:46;;;;;;;9.30;1.38;;;11.80;99.90;;;;;;5076300;28;20059;-86
2022/09/16 06:49:09;;;;;;;7.80;1.35;;;11.90;99.90;;;;;;5083953;28;20048;-85
2022/09/16 06:51:51;;;;;;;15.20;1.90;;;12.00;99.90;;;;;;5059983;28;20481;-85
2022/09/16 06:54:51;;;;;;;;;;;;;;;;;;;;;
2022/09/16 06:57:19;;;;;;;7.65;1.50;;;12.90;99.90;;;;;;5071555;28;20037;-84
2022/09/16 06:59:53;;;;;;;10.13;1.88;;;12.20;99.90;;;;;;5078102;28;20102;-85
2022/09/16 07:06:10;;;;;;;4.68;1.50;;;12.20;99.90;;;;;;5078746;28;20044;-85
2022/09/16 07:09:09;;;;;;;4.63;1.20;;;12.30;99.90;;;;;;5056436;28;20043;-87
2022/09/16 07:14:46;;;;;;;6.50;1.13;;;12.40;99.90;;;;;;5054628;28;20543;-84
2022/09/16 07:17:35;;;;;;;3.42;1.30;;;12.40;99.90;;;;;;5073799;28;20060;-84
2022/09/16 07:20:16;;;;;;;8.77;1.40;;;12.50;99.90;;;;;;5051302;28;20041;-85
2022/09/16 07:22:49;;;;;;;6.90;1.65;;;12.60;99.90;;;;;;5072341;28;20031;-84
2022/09/16 07:25:20;;;;;;;6.25;1.40;;;12.70;99.90;;;;;;5062330;28;20044;-84
2022/09/16 07:27:48;;;;;;;4.70;1.33;;;12.60;99.90;;;;;;5060443;28;20048;-84
2022/09/16 07:30:17;;;;;;;5.25;0.95;;;12.70;99.90;;;;;;5055631;28;20036;-84
2022/09/16 07:32:53;;;;;;;6.57;1.30;;;12.80;99.90;;;;;;5051010;28;20052;-83
2022/09/16 07:35:22;;;;;;;9.32;1.45;;;12.90;99.90;;;;;;5077817;28;20625;-84
2022/09/16 07:37:48;;;;;;;8.60;1.40;;;13.10;99.90;;;;;;5075795;28;20051;-83
2022/09/16 07:40:19;;;;;;;12.27;1.60;;;13.20;99.90;;;;;;5051182;28;20048;-84
2022/09/16 07:43:18;;;;;;;8.73;1.50;;;13.50;99.90;;;;;;5056693;28;20593;-84
2022/09/16 07:46:03;;;;;;;7.88;1.70;;;13.60;99.90;;;;;;5050801;28;20488;-84
2022/09/16 07:48:41;;;;;;;9.57;1.55;;;13.80;99.90;;;;;;5035106;28;20051;-84
2022/09/16 07:51:13;;;;;;;12.50;1.95;;;13.80;99.90;;;;;;5055499;28;20047;-84
2022/09/16 07:53:58;;;;;;;9.70;1.40;;;13.90;99.90;;;;;;5076143;28;20028;-84
2022/09/16 07:56:52;;;;;;;7.28;1.30;;;13.90;99.90;;;;;;5056084;28;20056;-84
2022/09/16 07:59:23;;;;;;;10.38;1.83;;;13.30;99.90;;;;;;5090517;28;20064;-89
2022/09/16 08:01:49;;;;;;;9.02;1.73;;;14.00;99.90;;;;;;5071252;28;20527;-85
2022/09/16 08:04:44;;;;;;;9.38;1.67;;;14.10;99.90;;;;;;5071511;28;20060;-83
2022/09/16 08:07:48;;;;;;;12.00;2.00;;;14.10;99.90;;;;;;5051545;28;20072;-86
2022/09/16 08:10:35;;;;;;;7.88;1.80;;;14.20;99.90;;;;;;5072781;28;20538;-85
2022/09/16 08:13:29;;;;;;;;;;;;;;;;;;;;;
2022/09/16 08:16:16;;;;;;;4.45;0.98;;;14.20;99.90;;;;;;5087566;28;20036;-86
2022/09/16 08:18:49;;;;;;;4.95;0.90;;;14.20;99.90;;;;;;5070705;28;20098;-86
2022/09/16 08:24:21;;;;;;;6.68;1.38;;;14.20;99.90;;;;;;5058713;28;20109;-86
2022/09/16 08:26:59;;;;;;;6.70;1.50;;;14.20;99.90;;;;;;5061401;28;20093;-85
2022/09/16 08:29:42;;;;;;;5.72;1.45;;;14.20;99.90;;;;;;5060208;28;20056;-85
2022/09/16 08:32:14;;;;;;;6.72;1.65;;;14.30;99.90;;;;;;5062597;28;20120;-83
2022/09/16 08:35:00;;;;;;;6.72;1.70;;;14.30;99.90;;;;;;5080007;28;20041;-88
2022/09/16 08:37:50;;;;;;;9.75;1.30;;;14.30;99.90;;;;;;5078154;28;20074;-86
2022/09/16 08:40:37;;;;;;;7.20;1.10;;;14.30;99.90;;;;;;5021972;28;20044;-86
2022/09/16 08:43:43;;;;;;;7.57;1.13;;;14.40;99.90;;;;;;5056719;28;20051;-85
2022/09/16 08:49:25;;;;;;;8.93;1.30;;;14.40;99.90;;;;;;5084198;28;20040;-86
2022/09/16 08:51:58;;;;;;;10.77;1.70;;;14.50;99.90;;;;;;5060736;28;20044;-86
2022/09/16 08:54:59;;;;;;;9.15;1.48;;;14.50;99.90;;;;;;5059363;28;20043;-87
2022/09/16 08:57:38;;;;;;;12.15;1.60;;;14.60;99.90;;;;;;5076195;28;20040;-88
2022/09/16 09:00:43;;;;;;;8.13;1.42;;;14.60;99.90;;;;;;5086961;28;20063;-86
2022/09/16 09:03:31;;;;;;;9.48;1.50;;;14.70;99.90;;;;;;5070724;28;20109;-86
2022/09/16 09:06:29;;;;;;;9.10;1.88;;;14.80;99.90;;;;;;5079664;28;20040;-85
2022/09/16 09:09:23;;;;;;;11.23;1.95;;;14.80;99.90;;;;;;5076614;28;20076;-85
2022/09/16 09:12:04;;;;;;;11.35;1.98;;;14.90;99.90;;;;;;5076490;28;20113;-83
2022/09/16 09:14:48;;;;;;;;;;;;;;;;;;;;;
2022/09/16 09:17:51;;;;;;;15.50;2.97;;;14.80;99.90;;;;;;5073693;28;20048;-86
2022/09/16 09:23:21;;;;;;;10.40;2.20;;;14.80;99.90;;;;;;5042856;28;20050;-89
2022/09/16 09:25:56;;;;;;;13.18;1.90;;;14.90;99.90;;;;;;5057143;28;20404;-89
2022/09/16 09:29:05;;;;;;;9.82;1.88;;;14.90;99.90;;;;;;5079012;28;20127;-87
2022/09/16 09:35:48;;;;;;;;;;;;;;;;;;;;;
2022/09/16 09:42:07;;;;;;;13.02;1.60;;;15.20;99.90;;;;;;5038680;28;20040;-87
2022/09/16 09:47:56;;;;;;;13.20;3.30;;;15.40;99.90;;;;;;5057147;28;20049;-88
2022/09/16 09:50:48;;;;;;;8.75;2.20;;;15.60;99.90;;;;;;5060443;28;20080;-89
2022/09/16 09:53:38;;;;;;;10.13;1.95;;;15.60;99.90;;;;;;5055075;28;20064;-89
2022/09/16 09:59:43;;;;;;;7.32;1.48;;;15.60;99.90;;;;;;5064670;28;20048;-89
2022/09/16 10:08:59;;;;;;;16.27;2.03;;;15.60;99.90;;;;;;5047684;28;20112;-90
2022/09/16 10:19:27;;;;;;;10.23;1.83;;;15.80;99.20;;;;;;4984082;28;20042;-88
2022/09/16 10:26:29;;;;;;;10.30;1.70;;;16.00;97.40;;;;;;4965429;28;20042;-87
2022/09/16 10:32:49;;;;;;;8.70;1.90;;;15.70;99.90;;;;;;5010820;28;20041;-87
2022/09/16 10:49:19;;;;;;;6.53;1.55;;;15.20;99.90;;;;;;5079503;28;20035;-87
2022/09/16 10:52:11;;;;;;;13.07;1.83;;;15.30;99.90;;;;;;5040582;28;20358;-86
2022/09/16 10:55:27;;;;;;;10.30;1.92;;;15.40;99.90;;;;;;5064426;28;20048;-86
2022/09/16 10:58:37;;;;;;;13.07;2.15;;;15.60;99.90;;;;;;5071585;28;20530;-87
2022/09/16 11:01:39;;;;;;;12.52;1.77;;;15.70;99.90;;;;;;5035946;28;20045;-85
2022/09/16 11:08:11;;;;;;;10.23;2.08;;;16.00;99.90;;;;;;5049578;28;20067;-86
2022/09/16 11:14:29;;;;;;;8.75;1.60;;;16.30;99.10;;;;;;5048746;28;20076;-88
2022/09/16 11:18:13;;;;;;;8.10;1.70;;;16.20;99.90;;;;;;5055073;28;20079;-88
2022/09/16 11:21:23;;;;;;;10.65;1.92;;;15.90;99.90;;;;;;4949287;28;20126;-86
2022/09/16 11:24:35;;;;;;;7.95;1.60;;;15.60;99.90;;;;;;4900818;28;20082;-87
2022/09/16 11:27:21;;;;;;;12.65;1.90;;;15.40;99.90;;;;;;4941503;28;20035;-85
2022/09/16 11:29:57;;;;;;;11.93;2.30;;;15.40;99.90;;;;;;4949745;28;20103;-85
2022/09/16 11:32:52;;;;;;;;;;;15.40;99.90;;;;;;4970522;28;20133;-85
2022/09/16 11:35:46;;;;;;;10.23;1.70;;;15.50;99.90;;;;;;5023562;28;19951;-85
2022/09/16 11:38:40;;;;;;;;;;;;;;;;;;;;;
2022/09/16 11:41:42;;;;;;;9.07;1.75;;;15.70;99.90;;;;;;5067160;28;20051;-84
2022/09/16 11:44:52;;;;;;;10.63;1.88;;;15.80;99.90;;;;;;5031209;28;20132;-84
2022/09/16 11:47:51;;;;;;;9.68;1.42;;;15.90;99.90;;;;;;4993646;28;20803;-84
2022/09/16 11:50:59;;;;;;;11.48;1.80;;;16.00;99.90;;;;;;4983800;28;20106;-85
2022/09/16 11:53:52;;;;;;;7.65;1.73;;;16.10;99.90;;;;;;5057522;28;20075;-86
2022/09/16 11:56:26;;;;;;;8.55;2.17;;;16.20;99.80;;;;;;5070538;28;20044;-84
2022/09/16 11:59:09;;;;;;;7.85;1.40;;;16.20;99.10;;;;;;5068306;28;20062;-85
2022/09/16 12:05:44;;;;;;;8.48;1.58;;;16.20;99.10;;;;;;5097353;28;20469;-84
2022/09/16 12:08:22;;;;;;;6.60;1.35;;;16.10;98.70;;;;;;5079623;28;20051;-85
2022/09/16 12:17:58;;;;;;;8.60;1.48;;;16.30;98.90;;;;;;5037544;28;20045;-87
2022/09/16 12:20:43;;;;;;;6.07;1.60;;;16.50;98.10;;;;;;5019699;28;20088;-88
2022/09/16 12:30:06;;;;;;;5.38;1.20;;;16.10;99.90;;;;;;5008349;28;20041;-85
2022/09/16 12:33:01;;;;;;;8.13;1.88;;;15.90;99.90;;;;;;4983768;28;20069;-87
2022/09/16 12:36:35;;;;;;;5.40;1.88;;;15.90;99.90;;;;;;4981030;28;20042;-86
2022/09/16 12:39:45;;;;;;;4.47;1.15;;;15.80;99.90;;;;;;4999714;28;20060;-84
2022/09/16 12:43:05;;;;;;;;;;;;;;;;;;;;;
2022/09/16 12:48:54;;;;;;;6.32;1.10;;;15.70;99.90;;;;;;5060008;28;20043;-84
2022/09/16 12:51:41;;;;;;;10.43;1.92;;;15.80;99.90;;;;;;5067555;28;20480;-86
2022/09/16 12:58:17;;;;;;;8.10;2.03;;;16.10;99.90;;;;;;5066936;28;20048;-86
2022/09/16 13:04:18;;;;;;;6.78;1.73;;;15.90;99.90;;;;;;5057492;28;20052;-85
2022/09/16 13:06:52;;;;;;;7.95;1.67;;;16.10;99.90;;;;;;5076956;28;20123;-85
2022/09/16 13:09:44;;;;;;;6.20;1.25;;;16.50;99.00;;;;;;5053059;28;20059;-86
2022/09/16 13:12:49;;;;;;;7.28;1.50;;;17.00;98.30;;;;;;5076146;28;20063;-85
2022/09/16 13:15:37;;;;;;;10.68;2.13;;;17.40;97.50;;;;;;5076939;28;20036;-86
2022/09/16 13:18:37;;;;;;;14.13;1.88;;;17.90;97.30;;;;;;5074732;28;20044;-86
2022/09/16 13:21:32;;;;;;;8.88;1.65;;;18.30;96.00;;;;;;5102573;28;20044;-85
2022/09/16 13:24:38;;;;;;;9.30;1.58;;;18.10;94.30;;;;;;5070551;28;20056;-86
2022/09/16 13:27:56;;;;;;;6.05;1.63;;;17.70;94.10;;;;;;5057693;28;20057;-86
2022/09/16 13:30:38;;;;;;;6.65;1.67;;;17.20;94.50;;;;;;4986320;28;20057;-86
2022/09/16 13:34:01;;;;;;;9.18;1.65;;;17.10;94.80;;;;;;4993353;28;20129;-85
2022/09/16 13:36:49;;;;;;;10.23;2.00;;;17.10;95.20;;;;;;4947051;29;20070;-86
2022/09/16 13:39:42;;;;;;;12.43;1.80;;;17.10;95.20;;;;;;4979438;28;20049;-86
2022/09/16 13:43:11;;;;;;;8.73;1.52;;;17.00;93.90;;;;;;5082160;28;20123;-86
2022/09/16 13:45:54;;;;;;;7.35;1.55;;;17.00;95.00;;;;;;5018510;28;20049;-87
2022/09/16 13:48:25;;;;;;;11.35;2.08;;;17.00;94.90;;;;;;5059705;28;20491;-86
2022/09/16 13:51:39;;;;;;;7.00;1.85;;;17.00;94.50;;;;;;5073656;28;20067;-86
2022/09/16 13:54:39;;;;;;;14.40;2.38;;;17.10;94.10;;;;;;5069020;28;20066;-87
2022/09/16 13:57:59;;;;;;;;;;;;;;;;;;;;;
2022/09/16 14:00:53;;;;;;;9.70;1.85;;;17.10;94.60;;;;;;5091672;28;20044;-86
2022/09/16 14:03:53;;;;;;;;;;;;;;;;;;;;;
2022/09/16 14:10:27;;;;;;;12.20;1.70;;;17.20;92.70;;;;;;5072655;28;20047;-86
2022/09/16 14:13:18;;;;;;;8.68;1.90;;;17.00;93.20;;;;;;5050761;28;20086;-86
2022/09/16 14:19:15;;;;;;;14.82;2.25;;;17.00;93.80;;;;;;5056544;28;20044;-86
2022/09/16 14:21:52;;;;;;;11.65;1.75;;;16.90;94.20;;;;;;5071472;28;20496;-86
2022/09/16 14:24:45;;;;;;;16.50;3.20;;;16.80;94.60;;;;;;5093925;28;20459;-86
2022/09/16 14:30:41;;;;;;;;;;;;;;;;;;;;;
2022/09/16 14:33:14;;;;;;;11.73;2.63;;;16.90;95.10;;;;;;5068014;28;20140;-86
2022/09/16 14:36:28;;;;;;;11.82;2.30;;;16.80;94.30;;;;;;5093072;28;20396;-87
2022/09/16 14:42:35;;;;;;;11.80;2.72;;;16.70;94.30;;;;;;5089867;28;20060;-87
2022/09/16 14:45:15;;;;;;;10.73;2.40;;;16.80;94.20;;;;;;5086136;28;20040;-87
2022/09/16 14:47:54;;;;;;;14.02;2.35;;;16.90;94.50;;;;;;5054515;28;20040;-87
2022/09/16 14:54:02;;;;;;;9.77;1.80;;;16.90;93.00;;;;;;5087249;28;20086;-87
2022/09/16 15:00:00;;;;;;;5.60;2.22;;;16.90;91.80;;;;;;5084570;28;20069;-86
2022/09/16 15:02:35;;;;;;;14.07;2.65;;;16.80;92.50;;;;;;5059442;28;20048;-87
2022/09/16 15:08:42;;;;;;;6.70;1.63;;;16.80;93.20;;;;;;5059041;28;20048;-85
2022/09/16 15:14:38;;;;;;;13.13;3.13;;;16.60;93.90;;;;;;5064650;28;20048;-85
2022/09/16 15:20:02;;;;;;;15.38;2.80;;;16.60;94.50;;;;;;5087737;28;20048;-86
2022/09/16 15:22:38;;;;;;;12.63;2.10;;;16.50;94.30;;;;;;5061855;28;20036;-86
2022/09/16 15:29:44;;;;;;;13.07;2.20;;;16.50;94.60;;;;;;5080555;28;20039;-87
2022/09/16 15:32:27;;;;;;;13.57;2.40;;;16.50;94.80;;;;;;5016494;28;20057;-85
2022/09/16 15:38:13;;;;;;;12.02;2.72;;;16.50;94.60;;;;;;5071918;28;20094;-86
2022/09/16 15:41:30;;;;;;;10.07;2.05;;;16.40;94.60;;;;;;5105332;28;20016;-85
2022/09/16 15:44:47;;;;;;;10.02;2.70;;;16.40;94.80;;;;;;5050713;28;20044;-86
2022/09/16 15:50:38;;;;;;;8.75;2.35;;;16.20;96.40;;;;;;5070120;28;20108;-86
2022/09/16 15:53:40;;;;;;;11.48;1.92;;;15.80;99.90;;;;;;5089363;28;20051;-86
2022/09/16 15:56:25;;;;;;;8.07;1.90;;;15.30;99.90;;;;;;5052870;28;20056;-85
2022/09/16 15:59:18;;;;;;;8.88;1.80;;;14.90;99.90;;;;;;5071818;28;20063;-87
2022/09/16 16:02:31;;;;;;;9.25;1.80;;;14.50;99.90;;;;;;5058938;28;20123;-86
2022/09/16 16:05:40;;;;;;;5.35;1.20;;;14.20;99.90;;;;;;5071581;28;20044;-87
2022/09/16 16:08:10;;;;;;;6.40;1.70;;;13.80;99.90;;;;;;4965991;28;20062;-87
2022/09/16 16:11:01;;;;;;;8.73;1.52;;;13.60;99.90;;;;;;4991395;28;20041;-87
2022/09/16 16:16:43;;;;;;;8.68;1.70;;;13.60;99.90;;;;;;5003893;28;21025;-88
2022/09/16 16:22:27;;;;;;;5.65;1.40;;;13.50;99.90;;;;;;5017162;28;20441;-86
2022/09/16 16:25:04;;;;;;;6.03;1.60;;;13.50;99.90;;;;;;5015132;28;20038;-87
2022/09/16 16:27:39;;;;;;;11.13;2.10;;;13.60;99.90;;;;;;4981273;28;20050;-86
2022/09/16 16:30:06;;;;;;;6.50;1.60;;;13.60;99.90;;;;;;5015797;28;20030;-86
2022/09/16 16:32:39;;;;;;;9.52;2.00;;;13.60;99.90;;;;;;5013186;28;20083;-86
2022/09/16 16:41:20;;;;;;;8.60;3.00;;;13.60;99.90;;;;;;5035000;28;20044;-86
2022/09/16 16:44:12;;;;;;;7.70;1.65;;;13.50;99.90;;;;;;5039312;28;20045;-86
2022/09/16 16:49:29;;;;;;;7.10;1.30;;;13.50;99.90;;;;;;5059248;28;20044;-86
2022/09/16 16:56:03;;;;;;;7.30;1.20;;;13.50;99.90;;;;;;5073154;28;20457;-86
2022/09/16 17:01:52;;;;;;;3.97;1.00;;;13.50;99.90;;;;;;5048622;28;20069;-87
2022/09/16 17:04:23;;;;;;;4.13;1.08;;;13.40;99.90;;;;;;5071710;28;20037;-88
2022/09/16 17:06:50;;;;;;;7.82;1.65;;;13.40;99.90;;;;;;5049849;28;20048;-85
2022/09/16 17:09:43;;;;;;;5.13;1.10;;;13.40;99.90;;;;;;5039618;28;20465;-87
2022/09/16 17:15:21;;;;;;;7.60;1.40;;;13.30;99.90;;;;;;5045310;28;20453;-87
2022/09/16 17:22:19;;;;;;;5.63;1.20;;;13.40;99.90;;;;;;5072577;28;20039;-87
2022/09/16 17:24:55;;;;;;;5.97;1.35;;;13.20;99.90;;;;;;5017311;28;20104;-86
2022/09/16 17:30:33;;;;;;;6.43;1.15;;;13.20;99.90;;;;;;5005763;28;20033;-87
2022/09/16 17:33:12;;;;;;;9.13;1.63;;;13.20;99.90;;;;;;5011694;28;20483;-87
2022/09/16 17:35:46;;;;;;;5.60;1.05;;;13.20;99.90;;;;;;5036550;28;20045;-86
2022/09/16 17:38:27;;;;;;;7.57;1.40;;;13.10;99.90;;;;;;5027549;28;20053;-88
2022/09/16 17:41:28;;;;;;;11.27;1.52;;;13.10;99.90;;;;;;5023425;28;20061;-86
2022/09/16 17:44:08;;;;;;;5.65;1.40;;;13.10;99.90;;;;;;5016308;28;20049;-86
2022/09/16 17:46:42;;;;;;;6.90;1.45;;;13.10;99.90;;;;;;5038856;28;20049;-86
2022/09/16 17:49:17;;;;;;;7.38;1.40;;;13.20;99.90;;;;;;5022018;28;20140;-86
2022/09/16 17:54:33;;;;;;;10.60;1.60;;;13.10;99.90;;;;;;5039431;28;20032;-86
2022/09/16 17:56:59;;;;;;;7.93;1.60;;;13.10;99.90;;;;;;5059509;28;20052;-87
2022/09/16 17:59:28;;;;;;;10.02;1.45;;;13.10;99.90;;;;;;5038106;28;20044;-86
2022/09/16 18:01:56;;;;;;;9.82;1.65;;;13.00;99.90;;;;;;5079308;28;20040;-87
2022/09/16 18:04:34;;;;;;;7.07;1.40;;;13.00;99.90;;;;;;5079864;28;20149;-87
2022/09/16 18:07:11;;;;;;;6.00;1.35;;;13.00;99.90;;;;;;5079140;28;20392;-86
2022/09/16 18:09:58;;;;;;;7.95;1.77;;;13.00;99.90;;;;;;5085445;28;20048;-87
2022/09/16 18:12:32;;;;;;;6.25;1.83;;;13.00;99.90;;;;;;5024202;28;20516;-87
2022/09/16 18:18:38;;;;;;;5.40;1.30;;;13.00;99.90;;;;;;5066696;28;20439;-87
2022/09/16 18:21:23;;;;;;;7.82;1.63;;;13.00;99.90;;;;;;5041909;28;20058;-86
2022/09/16 18:24:04;;;;;;;9.35;1.48;;;13.00;99.90;;;;;;5056910;28;20049;-86
2022/09/16 18:26:49;;;;;;;9.05;2.15;;;13.00;99.90;;;;;;5053972;28;20037;-86
2022/09/16 18:29:21;;;;;;;8.23;1.98;;;13.00;99.90;;;;;;5020954;28;20040;-86
2022/09/16 18:35:38;;;;;;;6.45;1.48;;;13.00;99.90;;;;;;5055497;28;20040;-87
2022/09/16 18:45:23;;;;;;;5.72;1.63;;;12.90;99.90;;;;;;5016558;28;20056;-85
2022/09/16 18:51:39;;;;;;;4.32;1.42;;;13.00;99.90;;;;;;5024595;28;20080;-86
2022/09/16 18:57:41;;;;;;;7.05;1.70;;;12.90;99.90;;;;;;5028522;28;20045;-86
2022/09/16 19:10:23;;;;;;;9.18;1.70;;;12.60;99.90;;;;;;5068956;28;20078;-87
2022/09/16 19:12:53;;;;;;;9.13;1.85;;;12.60;99.90;;;;;;5026450;28;20049;-86
2022/09/16 19:15:57;;;;;;;9.85;1.80;;;12.60;99.90;;;;;;5041537;28;20068;-87
2022/09/16 19:18:22;;;;;;;7.10;1.60;;;12.60;99.90;;;;;;5048543;28;20041;-87
2022/09/16 19:20:55;;;;;;;9.02;1.70;;;12.50;99.90;;;;;;5038602;28;20048;-87
2022/09/16 19:23:32;;;;;;;8.98;1.95;;;12.50;99.90;;;;;;5044216;28;20659;-87
2022/09/16 19:27:05;;;;;;;8.02;1.67;;;12.50;99.90;;;;;;5027985;28;20120;-87
2022/09/16 19:32:55;;;;;;;8.10;1.60;;;12.50;99.90;;;;;;5080270;28;20067;-87
2022/09/16 19:35:39;;;;;;;8.38;1.90;;;12.40;99.90;;;;;;5063148;28;20040;-86
2022/09/16 19:38:07;;;;;;;12.68;2.03;;;12.40;99.90;;;;;;5061162;28;20131;-86
2022/09/16 19:41:23;;;;;;;7.18;1.60;;;12.40;99.90;;;;;;5070221;28;20187;-86
2022/09/16 19:43:59;;;;;;;5.57;1.45;;;12.40;99.90;;;;;;5070467;28;20044;-86
2022/09/16 19:46:47;;;;;;;8.82;1.52;;;12.30;99.90;;;;;;5058145;28;20165;-86
2022/09/16 19:49:25;;;;;;;7.28;1.25;;;12.30;99.90;;;;;;5061034;28;20054;-86
2022/09/16 19:52:24;;;;;;;6.88;1.50;;;12.30;99.90;;;;;;5054292;28;20036;-87
2022/09/16 19:55:03;;;;;;;8.43;1.50;;;12.30;99.90;;;;;;5070302;28;20604;-86
2022/09/16 19:57:53;;;;;;;8.80;2.25;;;12.30;99.90;;;;;;5066726;28;20066;-87
2022/09/16 20:00:19;;;;;;;7.75;1.60;;;12.30;99.90;;;;;;5058598;28;20051;-88
2022/09/16 20:02:50;;;;;;;8.25;1.63;;;12.30;99.90;;;;;;5069956;28;20059;-86
2022/09/16 20:08:18;;;;;;;7.63;1.42;;;12.30;99.90;;;;;;5047999;28;20044;-86
2022/09/16 20:10:46;;;;;;;7.90;2.05;;;12.30;99.90;;;;;;5072106;28;20052;-87
2022/09/16 20:13:32;;;;;;;12.27;1.95;;;12.30;99.90;;;;;;5044525;28;20104;-86
2022/09/16 20:16:08;;;;;;;8.38;1.50;;;12.20;99.90;;;;;;5035012;28;20139;-86
2022/09/16 20:21:37;;;;;;;8.02;1.55;;;12.20;99.90;;;;;;5039700;28;20071;-86
2022/09/16 20:27:28;;;;;;;14.02;2.25;;;12.20;99.90;;;;;;5075123;28;20036;-86
2022/09/16 20:30:00;;;;;;;7.00;1.90;;;12.20;99.90;;;;;;5060747;28;20052;-86
2022/09/16 20:32:36;;;;;;;15.23;2.08;;;12.30;99.90;;;;;;5080971;28;20115;-87